createdAt,value
2019-01-21T00:01:23.687Z,41.63
2019-01-21T00:03:53.281Z,42.30
2019-01-21T00:06:23.536Z,42.40
2019-01-21T00:08:53.251Z,47.50
2019-01-21T00:11:22.861Z,44.43
2019-01-21T00:13:52.888Z,43.50
2019-01-21T00:16:23.152Z,44.20
2019-01-21T00:18:52.840Z,46.63
2019-01-21T00:21:22.448Z,44.70
2019-01-21T00:23:52.026Z,43.20
2019-01-21T00:26:21.608Z,44.73
2019-01-21T00:28:51.869Z,44.40
2019-01-21T00:31:22.215Z,45.33
2019-01-21T00:33:51.884Z,49.20
2019-01-21T00:36:21.485Z,45.73
2019-01-21T00:38:51.803Z,45.70
2019-01-21T00:41:21.472Z,49.10
2019-01-21T00:43:51.724Z,43.27
2019-01-21T00:46:22.047Z,40.33
2019-01-21T00:48:52.412Z,40.40
2019-01-21T00:51:22.148Z,41.83
2019-01-21T00:53:52.392Z,40.60
2019-01-21T00:56:22.728Z,40.57
2019-01-21T00:58:53.092Z,42.10
2019-01-21T01:01:22.776Z,41.33
2019-01-21T01:03:53.068Z,37.50
2019-01-21T01:06:22.749Z,38.07
2019-01-21T01:08:53.016Z,38.80
2019-01-21T01:11:22.679Z,41.37
2019-01-21T01:13:52.971Z,39.77
2019-01-21T01:16:23.303Z,41.17
2019-01-21T01:18:53.672Z,39.23
2019-01-21T01:21:23.344Z,42.80
2019-01-21T01:23:53.612Z,42.30
2019-01-21T01:26:23.289Z,42.37
2019-01-21T01:28:52.900Z,38.30
2019-01-21T01:31:23.160Z,43.00
2019-01-21T01:33:52.867Z,48.67
2019-01-21T01:36:23.095Z,43.03
2019-01-21T01:38:53.443Z,43.00
2019-01-21T01:41:23.107Z,40.90
2019-01-21T01:43:53.349Z,39.37
2019-01-21T01:46:23.123Z,41.20
2019-01-21T01:48:53.380Z,38.70
2019-01-21T01:51:23.726Z,41.33
2019-01-21T01:53:54.092Z,39.20
2019-01-21T01:56:24.448Z,39.13
2019-01-21T01:58:54.938Z,43.73
2019-01-21T02:01:24.819Z,44.93
2019-01-21T02:03:55.063Z,41.77
2019-01-21T02:06:24.759Z,41.97
2019-01-21T02:08:54.984Z,39.20
2019-01-21T02:11:24.660Z,39.37
2019-01-21T02:13:55.209Z,41.53
2019-01-21T02:16:24.988Z,43.87
2019-01-21T02:18:55.328Z,41.80
2019-01-21T02:21:27.873Z,39.40
2019-01-21T02:24:05.058Z,44.40
2019-01-21T02:26:36.948Z,47.50
2019-01-21T02:29:10.388Z,39.27
2019-01-21T02:32:18.321Z,39.60
2019-01-21T02:35:00.672Z,43.40
2019-01-21T02:38:33.330Z,42.93
2019-01-21T02:41:28.959Z,38.30
2019-01-21T02:44:44.445Z,42.97
2019-01-21T02:47:35.707Z,40.47
2019-01-21T02:50:47.220Z,40.77
2019-01-21T02:53:52.897Z,42.57
2019-01-21T02:57:00.277Z,39.30
2019-01-21T03:00:01.946Z,44.73
2019-01-21T03:02:52.904Z,38.47
2019-01-21T03:05:47.607Z,43.60
2019-01-21T03:08:47.931Z,38.80
2019-01-21T03:11:25.572Z,39.83
2019-01-21T03:14:04.436Z,38.03
2019-01-21T03:17:05.237Z,36.50
2019-01-21T03:19:49.321Z,39.77
2019-01-21T03:23:06.300Z,40.10
2019-01-21T03:26:05.541Z,34.27
2019-01-21T03:29:09.151Z,36.43
2019-01-21T03:32:13.065Z,38.03
2019-01-21T03:35:01.796Z,37.03
2019-01-21T03:37:59.168Z,39.10
2019-01-21T03:40:59.424Z,37.17
2019-01-21T03:44:32.220Z,35.77
2019-01-21T03:47:15.407Z,34.53
2019-01-21T03:50:04.057Z,35.37
2019-01-21T03:53:11.594Z,34.77
2019-01-21T03:55:42.146Z,37.13
2019-01-21T03:58:43.379Z,34.57
2019-01-21T04:02:03.928Z,36.53
2019-01-21T04:05:06.755Z,36.23
2019-01-21T04:07:42.876Z,34.35
2019-01-21T04:10:54.023Z,37.27
2019-01-21T04:13:46.848Z,38.27
2019-01-21T04:16:48.949Z,33.80
2019-01-21T04:20:03.465Z,35.37
2019-01-21T04:23:18.149Z,33.35
2019-01-21T04:26:09.462Z,34.43
2019-01-21T04:29:08.123Z,34.83
2019-01-21T04:32:10.149Z,33.30
2019-01-21T04:35:32.856Z,38.30
2019-01-21T04:38:38.747Z,32.83
2019-01-21T04:41:27.481Z,34.17
2019-01-21T04:44:34.597Z,31.10
2019-01-21T04:47:32.230Z,32.83
2019-01-21T04:50:18.910Z,35.93
2019-01-21T04:53:32.553Z,31.60
2019-01-21T04:56:27.316Z,33.63
2019-01-21T04:59:26.668Z,33.90
2019-01-21T05:02:24.489Z,32.70
2019-01-21T05:05:28.163Z,30.27
2019-01-21T05:08:16.946Z,33.90
2019-01-21T05:10:55.164Z,32.90
2019-01-21T05:14:24.275Z,31.53
2019-01-21T05:17:44.672Z,32.40
2019-01-21T05:20:46.152Z,31.83
2019-01-21T05:24:01.229Z,32.77
2019-01-21T05:27:12.888Z,27.87
2019-01-21T05:30:22.163Z,29.17
2019-01-21T05:33:20.965Z,28.60
2019-01-21T05:36:40.197Z,29.07
2019-01-21T05:39:17.289Z,31.30
2019-01-21T05:42:33.530Z,30.87
2019-01-21T05:45:48.700Z,28.97
2019-01-21T05:48:36.016Z,24.77
2019-01-21T05:51:27.584Z,27.23
2019-01-21T05:54:35.108Z,26.73
2019-01-21T05:57:42.637Z,28.17
2019-01-21T06:00:26.887Z,27.83
2019-01-21T06:03:10.295Z,23.03
2019-01-21T06:06:27.624Z,25.70
2019-01-21T06:09:16.351Z,27.80
2019-01-21T06:11:59.630Z,26.37
2019-01-21T06:15:04.412Z,25.80
2019-01-21T06:18:01.455Z,29.63
2019-01-21T06:20:51.373Z,25.92
2019-01-21T06:24:05.036Z,30.17
2019-01-21T06:27:19.296Z,27.40
2019-01-21T06:30:10.851Z,24.20
2019-01-21T06:33:33.852Z,27.07
2019-01-21T06:36:26.502Z,27.00
2019-01-21T06:39:10.440Z,26.97
2019-01-21T06:42:03.756Z,29.63
2019-01-21T06:45:04.559Z,27.02
2019-01-21T06:48:11.649Z,27.60
2019-01-21T06:51:00.376Z,27.87
2019-01-21T06:54:09.361Z,25.95
2019-01-21T06:57:35.948Z,26.00
2019-01-21T07:00:30.928Z,27.63
2019-01-21T07:03:38.236Z,29.07
2019-01-21T07:07:06.776Z,31.97
2019-01-21T07:10:10.121Z,28.17
2019-01-21T07:13:33.104Z,27.40
2019-01-21T07:16:28.713Z,32.67
2019-01-21T07:19:42.306Z,30.63
2019-01-21T07:22:51.207Z,30.07
2019-01-21T07:25:56.723Z,31.57
2019-01-21T07:29:00.139Z,28.20
2019-01-21T07:31:32.102Z,27.67
2019-01-21T07:34:05.556Z,29.27
2019-01-21T07:36:39.899Z,28.73
2019-01-21T07:39:28.552Z,25.90
2019-01-21T07:42:17.404Z,28.03
2019-01-21T07:45:06.043Z,29.20
2019-01-21T07:48:05.540Z,28.97
2019-01-21T07:50:57.524Z,27.57
2019-01-21T07:53:49.372Z,27.43
2019-01-21T07:56:55.660Z,24.47
2019-01-21T07:59:53.807Z,24.03
2019-01-21T08:03:10.764Z,24.17
2019-01-21T08:06:02.939Z,26.90
2019-01-21T08:09:23.501Z,25.47
2019-01-21T08:12:12.321Z,27.37
2019-01-21T08:15:16.418Z,26.90
2019-01-21T08:18:30.560Z,33.23
2019-01-21T08:21:36.513Z,29.67
2019-01-21T08:24:40.235Z,29.40
2019-01-21T08:27:35.948Z,26.67
2019-01-21T08:30:20.864Z,36.57
2019-01-21T08:32:54.800Z,53.43
2019-01-21T08:35:54.468Z,42.75
2019-01-21T08:38:52.149Z,22.73
2019-01-21T08:41:28.700Z,22.83
2019-01-21T08:45:04.363Z,22.80
2019-01-21T08:48:26.260Z,18.80
2019-01-21T08:51:15.318Z,17.53
2019-01-21T08:54:30.284Z,23.53
2019-01-21T08:57:16.376Z,17.67
2019-01-21T08:59:55.523Z,19.17
2019-01-21T09:02:53.066Z,14.93
2019-01-21T09:06:07.484Z,15.57
2019-01-21T09:08:55.187Z,16.03
2019-01-21T09:12:15.436Z,18.67
2019-01-21T09:15:31.360Z,17.00
2019-01-21T09:18:36.489Z,34.97
2019-01-21T09:21:45.816Z,17.77
2019-01-21T09:24:55.268Z,18.70
2019-01-21T09:27:54.568Z,17.00
2019-01-21T09:30:38.536Z,17.47
2019-01-21T09:33:51.758Z,17.20
2019-01-21T09:36:57.861Z,17.67
2019-01-21T09:39:45.603Z,18.43
2019-01-21T09:42:36.730Z,18.33
2019-01-21T09:45:40.308Z,16.43
2019-01-21T09:48:08.944Z,42.97
2019-01-21T09:50:40.421Z,28.20
2019-01-21T09:53:10.916Z,17.20
2019-01-21T09:55:42.084Z,16.23
2019-01-21T09:58:12.388Z,16.10
2019-01-21T10:00:42.742Z,15.33
2019-01-21T10:03:13.965Z,18.70
2019-01-21T10:05:47.312Z,17.07
2019-01-21T10:08:45.631Z,18.30
2019-01-21T10:11:26.924Z,18.70
2019-01-21T10:14:21.456Z,19.43
2019-01-21T10:17:10.183Z,19.83
2019-01-21T10:20:13.952Z,18.57
2019-01-21T10:23:00.040Z,17.53
2019-01-21T10:26:12.411Z,17.93
2019-01-21T10:29:22.161Z,19.92
2019-01-21T10:32:00.103Z,19.83
2019-01-21T10:35:16.663Z,16.03
2019-01-21T10:38:27.774Z,15.77
2019-01-21T10:41:25.633Z,17.10
2019-01-21T10:44:20.222Z,19.43
2019-01-21T10:47:18.225Z,17.27
2019-01-21T10:50:09.744Z,13.80
2019-01-21T10:53:11.096Z,18.07
2019-01-21T10:56:06.015Z,17.20
2019-01-21T10:58:57.279Z,17.57
2019-01-21T11:01:55.097Z,18.67
2019-01-21T11:04:44.783Z,20.00
2019-01-21T11:07:51.030Z,23.77
2019-01-21T11:10:46.244Z,17.17
2019-01-21T11:13:46.870Z,21.97
2019-01-21T11:16:38.078Z,19.33
2019-01-21T11:19:47.981Z,18.27
2019-01-21T11:22:59.686Z,20.00
2019-01-21T11:26:25.995Z,19.48
2019-01-21T11:29:28.020Z,20.70
2019-01-21T11:32:25.604Z,19.00
2019-01-21T11:35:27.929Z,17.53
2019-01-21T11:38:40.222Z,9.53
2019-01-21T11:41:27.904Z,5.13
2019-01-21T11:44:45.177Z,8.73
2019-01-21T11:48:08.311Z,7.57
2019-01-21T11:50:57.672Z,7.43
2019-01-21T11:53:49.235Z,6.47
2019-01-21T11:56:57.764Z,7.63
2019-01-21T11:59:58.996Z,8.10
2019-01-21T12:02:48.660Z,8.50
2019-01-21T12:05:56.401Z,8.13
2019-01-21T12:08:54.264Z,8.57
2019-01-21T12:11:32.398Z,11.13
2019-01-21T12:14:19.907Z,7.97
2019-01-21T12:17:25.597Z,9.13
2019-01-21T12:20:16.977Z,10.47
2019-01-21T12:23:43.899Z,8.13
2019-01-21T12:26:28.212Z,11.47
2019-01-21T12:29:41.552Z,9.83
2019-01-21T12:32:33.353Z,10.63
2019-01-21T12:35:25.564Z,10.07
2019-01-21T12:38:02.719Z,12.17
2019-01-21T12:40:48.092Z,11.97
2019-01-21T12:44:01.012Z,9.13
2019-01-21T12:46:39.480Z,10.63
2019-01-21T12:49:44.161Z,10.13
2019-01-21T12:52:37.871Z,13.67
2019-01-21T12:55:44.078Z,12.23
2019-01-21T12:58:57.183Z,11.80
2019-01-21T13:01:54.225Z,12.73
2019-01-21T13:05:26.948Z,14.03
2019-01-21T13:08:28.067Z,12.37
2019-01-21T13:11:22.361Z,13.20
2019-01-21T13:14:55.188Z,13.60
2019-01-21T13:18:08.082Z,14.67
2019-01-21T13:21:22.120Z,13.72
2019-01-21T13:24:29.772Z,15.63
2019-01-21T13:27:40.878Z,12.70
2019-01-21T13:30:48.664Z,11.53
2019-01-21T13:33:36.793Z,14.07
2019-01-21T13:36:31.791Z,12.17
2019-01-21T13:39:47.887Z,11.53
2019-01-21T13:42:45.828Z,11.83
2019-01-21T13:45:22.425Z,13.00
2019-01-21T13:48:28.068Z,11.17
2019-01-21T13:51:28.628Z,12.57
2019-01-21T13:54:34.314Z,11.90
2019-01-21T13:57:43.599Z,13.00
2019-01-21T14:00:35.388Z,9.73
2019-01-21T14:03:55.482Z,11.33
2019-01-21T14:06:47.084Z,10.37
2019-01-21T14:09:52.548Z,11.90
2019-01-21T14:12:53.488Z,10.10
2019-01-21T14:15:34.140Z,12.53
2019-01-21T14:18:21.659Z,10.67
2019-01-21T14:21:25.878Z,10.47
2019-01-21T14:24:26.432Z,10.33
2019-01-21T14:27:31.287Z,10.78
2019-01-21T14:30:18.470Z,10.97
2019-01-21T14:33:24.236Z,9.77
2019-01-21T14:36:12.980Z,11.77
2019-01-21T14:38:45.771Z,9.07
2019-01-21T14:42:01.680Z,11.08
2019-01-21T14:45:10.716Z,10.93
2019-01-21T14:48:25.088Z,12.60
2019-01-21T14:51:54.808Z,13.73
2019-01-21T14:55:04.297Z,11.28
2019-01-21T14:58:05.260Z,10.90
2019-01-21T15:01:21.540Z,10.60
2019-01-21T15:04:33.144Z,10.10
2019-01-21T15:07:07.591Z,16.10
2019-01-21T15:09:54.920Z,9.37
2019-01-21T15:12:43.925Z,9.67
2019-01-21T15:15:50.619Z,10.57
2019-01-21T15:18:33.527Z,10.90
2019-01-21T15:21:08.676Z,13.35
2019-01-21T15:24:07.535Z,12.13
2019-01-21T15:27:02.595Z,14.17
2019-01-21T15:29:59.351Z,13.33
2019-01-21T15:33:12.041Z,10.20
2019-01-21T15:35:59.238Z,12.93
2019-01-21T15:38:56.183Z,12.23
2019-01-21T15:41:58.128Z,14.67
2019-01-21T15:44:34.073Z,12.88
2019-01-21T15:47:28.951Z,11.80
2019-01-21T15:50:27.196Z,11.33
2019-01-21T15:53:06.311Z,11.97
2019-01-21T15:56:19.509Z,11.30
2019-01-21T15:59:08.271Z,13.27
2019-01-21T16:02:06.079Z,15.03
2019-01-21T16:04:59.648Z,18.27
2019-01-21T16:08:00.324Z,14.55
2019-01-21T16:11:01.280Z,10.70
2019-01-21T16:13:36.769Z,14.63
2019-01-21T16:16:24.841Z,12.23
2019-01-21T16:19:08.116Z,13.60
2019-01-21T16:22:33.256Z,13.38
2019-01-21T16:25:22.349Z,12.43
2019-01-21T16:28:20.110Z,14.57
2019-01-21T16:31:36.468Z,15.57
2019-01-21T16:34:29.027Z,11.50
2019-01-21T16:37:18.265Z,12.60
2019-01-21T16:40:28.303Z,14.30
2019-01-21T16:43:00.683Z,12.93
2019-01-21T16:45:30.296Z,12.90
2019-01-21T16:47:59.914Z,13.27
2019-01-21T16:50:30.127Z,11.40
2019-01-21T16:52:59.777Z,14.07
2019-01-21T16:55:30.019Z,17.43
2019-01-21T16:58:00.420Z,15.37
2019-01-21T17:00:30.084Z,14.43
2019-01-21T17:03:00.352Z,15.73
2019-01-21T17:05:30.031Z,16.60
2019-01-21T17:08:00.774Z,14.97
2019-01-21T17:10:30.408Z,16.60
2019-01-21T17:12:59.990Z,20.07
2019-01-21T17:15:29.596Z,17.70
2019-01-21T17:17:59.412Z,25.27
2019-01-21T17:20:29.006Z,24.10
2019-01-21T17:22:59.824Z,24.87
2019-01-21T17:25:29.524Z,18.07
2019-01-21T17:28:00.040Z,14.67
2019-01-21T17:30:29.740Z,15.33
2019-01-21T17:33:00.637Z,13.83
2019-01-21T17:35:30.347Z,12.20
2019-01-21T17:38:00.010Z,12.80
2019-01-21T17:40:29.611Z,14.57
2019-01-21T17:42:59.316Z,11.37
2019-01-21T17:45:29.588Z,12.87
2019-01-21T17:47:59.272Z,14.73
2019-01-21T17:50:28.871Z,14.33
2019-01-21T17:52:58.460Z,20.77
2019-01-21T17:55:28.727Z,16.30
2019-01-21T17:57:58.467Z,20.67
2019-01-21T18:00:28.715Z,13.90
2019-01-21T18:02:59.069Z,9.77
2019-01-21T18:05:29.420Z,14.40
2019-01-21T18:07:59.759Z,13.53
2019-01-21T18:10:29.544Z,10.40
2019-01-21T18:12:59.151Z,15.47
2019-01-21T18:15:28.723Z,10.10
2019-01-21T18:17:58.300Z,12.33
2019-01-21T18:20:27.918Z,9.35
2019-01-21T18:22:57.497Z,10.87
2019-01-21T18:25:27.096Z,10.83
2019-01-21T18:27:56.684Z,10.00
2019-01-21T18:30:26.848Z,13.40
2019-01-21T18:32:57.331Z,13.20
2019-01-21T18:35:27.654Z,20.00
2019-01-21T18:37:57.706Z,16.23
2019-01-21T18:40:27.932Z,16.67
2019-01-21T18:42:57.727Z,16.27
2019-01-21T18:45:27.983Z,14.77
2019-01-21T18:47:57.628Z,14.70
2019-01-21T18:50:27.852Z,15.60
2019-01-21T18:52:58.196Z,9.80
2019-01-21T18:55:28.516Z,8.73
2019-01-21T18:57:58.240Z,9.77
2019-01-21T19:00:28.456Z,8.30
2019-01-21T19:02:58.796Z,8.60
2019-01-21T19:05:29.116Z,7.40
2019-01-21T19:07:59.459Z,7.10
2019-01-21T19:10:29.134Z,8.40
2019-01-21T19:12:58.815Z,7.80
2019-01-21T19:15:29.623Z,11.27
2019-01-21T19:17:59.908Z,9.27
2019-01-21T19:20:29.589Z,10.47
2019-01-21T19:22:59.829Z,9.10
2019-01-21T19:25:29.561Z,6.03
2019-01-21T19:27:59.168Z,6.43
2019-01-21T19:30:28.791Z,6.73
2019-01-21T19:32:59.021Z,8.60
2019-01-21T19:35:31.924Z,7.07
2019-01-21T19:38:02.289Z,7.37
2019-01-21T19:40:32.737Z,7.05
2019-01-21T19:43:02.402Z,6.67
2019-01-21T19:45:32.667Z,7.77
2019-01-21T19:48:03.036Z,7.40
2019-01-21T19:50:33.376Z,7.07
2019-01-21T19:53:03.037Z,6.70
2019-01-21T19:55:36.926Z,9.30
2019-01-21T19:58:07.891Z,10.30
2019-01-21T20:00:38.384Z,9.97
2019-01-21T20:03:08.032Z,7.10
2019-01-21T20:05:37.611Z,9.30
2019-01-21T20:08:07.870Z,7.63
2019-01-21T20:10:38.183Z,9.30
2019-01-21T20:13:08.512Z,8.40
2019-01-21T20:15:38.932Z,8.03
2019-01-21T20:18:09.244Z,7.20
2019-01-21T20:20:39.985Z,7.90
2019-01-21T20:23:09.584Z,7.63
2019-01-21T20:25:39.211Z,7.27
2019-01-21T20:28:09.431Z,9.13
2019-01-21T20:30:39.151Z,6.57
2019-01-21T20:33:09.376Z,8.37
2019-01-21T20:35:39.753Z,7.97
2019-01-21T20:38:09.407Z,10.00
2019-01-21T20:40:38.984Z,8.97
2019-01-21T20:43:08.567Z,7.37
2019-01-21T20:45:38.170Z,7.83
2019-01-21T20:48:07.750Z,7.93
2019-01-21T20:50:37.423Z,6.83
2019-01-21T20:53:07.747Z,8.90
2019-01-21T20:55:37.412Z,8.03
2019-01-21T20:58:07.670Z,8.60
2019-01-21T21:00:38.180Z,8.17
2019-01-21T21:03:08.591Z,8.20
2019-01-21T21:05:38.948Z,8.37
2019-01-21T21:08:08.625Z,9.03
2019-01-21T21:10:38.207Z,9.67
2019-01-21T21:13:08.587Z,8.63
2019-01-21T21:15:38.300Z,5.93
2019-01-21T21:18:07.909Z,9.27
2019-01-21T21:20:37.617Z,9.43
2019-01-21T21:23:07.912Z,8.43
2019-01-21T21:25:37.639Z,8.20
2019-01-21T21:28:07.249Z,8.10
2019-01-21T21:30:36.832Z,10.47
2019-01-21T21:33:07.424Z,10.53
2019-01-21T21:35:37.103Z,10.63
2019-01-21T21:38:07.411Z,8.20
2019-01-21T21:40:37.105Z,9.03
2019-01-21T21:43:06.728Z,8.97
2019-01-21T21:45:36.653Z,9.37
2019-01-21T21:48:07.151Z,8.23
2019-01-21T21:50:36.880Z,9.53
2019-01-21T21:53:06.497Z,9.07
2019-01-21T21:55:36.508Z,11.30
2019-01-21T21:58:07.311Z,13.30
2019-01-21T22:00:56.000Z,11.10
2019-01-21T22:03:26.292Z,14.65
2019-01-21T22:05:55.975Z,13.97
2019-01-21T22:08:25.724Z,14.63
2019-01-21T22:10:55.320Z,14.57
2019-01-21T22:13:25.653Z,19.90
2019-01-21T22:15:55.328Z,18.83
2019-01-21T22:18:24.936Z,16.10
2019-01-21T22:20:54.564Z,17.57
2019-01-21T22:23:24.823Z,19.97
2019-01-21T22:25:54.509Z,22.07
2019-01-21T22:28:24.800Z,18.93
2019-01-21T22:30:54.484Z,18.67
2019-01-21T22:33:24.768Z,19.40
2019-01-21T22:35:54.424Z,18.57
2019-01-21T22:38:24.664Z,16.80
2019-01-21T22:40:55.111Z,22.00
2019-01-21T22:43:25.640Z,17.65
2019-01-21T22:45:55.996Z,19.02
2019-01-21T22:48:26.396Z,22.03
2019-01-21T22:50:56.717Z,19.83
2019-01-21T22:53:26.401Z,22.70
2019-01-21T22:55:56.957Z,21.90
2019-01-21T22:58:27.536Z,25.43
2019-01-21T23:01:20.913Z,21.10
2019-01-21T23:03:51.557Z,19.83
2019-01-21T23:06:21.247Z,27.60
2019-01-21T23:08:51.486Z,25.80
2019-01-21T23:11:21.832Z,24.37
2019-01-21T23:13:51.488Z,25.53
2019-01-21T23:16:21.288Z,23.83
2019-01-21T23:18:51.558Z,26.17
2019-01-21T23:21:21.871Z,21.50
2019-01-21T23:23:51.916Z,18.93
2019-01-21T23:26:22.168Z,20.93
2019-01-21T23:28:52.812Z,23.27
2019-01-21T23:31:23.129Z,20.90
2019-01-21T23:33:53.840Z,18.43
2019-01-21T23:36:24.187Z,17.23
2019-01-21T23:38:54.520Z,17.23
2019-01-21T23:41:24.184Z,19.20
2019-01-21T23:43:54.444Z,18.23
2019-01-21T23:46:24.781Z,23.57
2019-01-21T23:48:55.166Z,22.13
2019-01-21T23:51:24.825Z,20.37
2019-01-21T23:53:55.091Z,18.93
2019-01-21T23:56:25.434Z,20.72
2019-01-21T23:58:55.737Z,22.40
